createdAt,value
2022-12-01T00:01:28.116Z,1.40
2022-12-01T00:03:55.867Z,1.40
2022-12-01T00:06:23.692Z,1.40
2022-12-01T00:09:12.999Z,1.40
2022-12-01T00:11:43.208Z,1.40
2022-12-01T00:14:10.956Z,1.40
2022-12-01T00:16:40.647Z,1.40
2022-12-01T00:19:08.797Z,1.40
2022-12-01T00:21:36.623Z,1.40
2022-12-01T00:24:04.512Z,1.40
2022-12-01T00:26:32.339Z,1.40
2022-12-01T00:29:00.241Z,1.48
2022-12-01T00:31:28.157Z,1.44
2022-12-01T00:33:55.997Z,1.50
2022-12-01T00:36:23.969Z,1.50
2022-12-01T00:38:55.658Z,1.50
2022-12-01T00:41:26.001Z,1.50
2022-12-01T00:43:54.001Z,1.50
2022-12-01T00:46:21.849Z,1.50
2022-12-01T00:48:49.964Z,1.50
2022-12-01T00:51:17.785Z,1.50
2022-12-01T00:53:46.103Z,1.46
2022-12-01T00:56:15.019Z,1.42
2022-12-01T00:58:42.852Z,1.44
2022-12-01T01:01:10.585Z,1.46
2022-12-01T01:03:38.608Z,1.42
2022-12-01T01:06:11.388Z,1.50
2022-12-01T01:08:39.652Z,1.46
2022-12-01T01:11:07.876Z,1.50
2022-12-01T01:13:36.128Z,1.50
2022-12-01T01:16:11.644Z,1.50
2022-12-01T01:18:39.366Z,1.50
2022-12-01T01:21:09.137Z,1.50
2022-12-01T01:23:38.764Z,1.50
2022-12-01T01:26:10.785Z,1.50
2022-12-01T01:28:41.509Z,1.50
2022-12-01T01:31:11.406Z,1.50
2022-12-01T01:33:39.353Z,1.50
2022-12-01T01:36:07.297Z,1.50
2022-12-01T01:38:35.552Z,1.50
2022-12-01T01:41:04.590Z,1.50
2022-12-01T01:43:46.565Z,1.50
2022-12-01T01:46:31.575Z,1.50
2022-12-01T01:49:08.269Z,1.50
2022-12-01T01:51:46.533Z,1.50
2022-12-01T01:54:29.384Z,1.50
2022-12-01T01:56:57.574Z,1.50
2022-12-01T01:59:31.839Z,1.50
2022-12-01T02:02:08.686Z,1.50
2022-12-01T02:04:40.559Z,1.50
2022-12-01T02:07:09.239Z,1.50
2022-12-01T02:09:37.044Z,1.50
2022-12-01T02:12:39.360Z,1.50
2022-12-01T02:15:42.411Z,1.48
2022-12-01T02:18:25.400Z,1.44
2022-12-01T02:21:08.422Z,1.40
2022-12-01T02:24:06.667Z,1.40
2022-12-01T02:26:53.387Z,1.40
2022-12-01T02:30:02.087Z,1.40
2022-12-01T02:33:02.161Z,1.40
2022-12-01T02:35:52.722Z,1.40
2022-12-01T02:38:40.280Z,1.40
2022-12-01T02:41:20.055Z,1.40
2022-12-01T02:44:03.526Z,1.40
2022-12-01T02:46:36.120Z,1.40
2022-12-01T02:49:10.471Z,1.40
2022-12-01T02:51:38.329Z,1.40
2022-12-01T02:54:06.251Z,1.40
2022-12-01T02:56:34.500Z,1.40
2022-12-01T02:59:02.204Z,1.40
2022-12-01T03:01:46.148Z,1.40
2022-12-01T03:04:43.706Z,1.40
2022-12-01T03:07:57.557Z,1.40
2022-12-01T03:10:57.857Z,1.40
2022-12-01T03:13:50.333Z,1.40
2022-12-01T03:16:32.074Z,1.40
2022-12-01T03:19:04.428Z,1.40
2022-12-01T03:21:42.201Z,1.40
2022-12-01T03:24:19.538Z,1.40
2022-12-01T03:26:51.939Z,1.40
2022-12-01T03:29:23.019Z,1.40
2022-12-01T03:31:56.999Z,1.40
2022-12-01T03:34:40.493Z,1.40
2022-12-01T03:37:26.591Z,1.40
2022-12-01T03:40:00.245Z,1.40
2022-12-01T03:42:42.174Z,1.40
2022-12-01T03:45:16.033Z,1.46
2022-12-01T03:47:43.912Z,1.50
2022-12-01T03:50:14.171Z,1.50
2022-12-01T03:53:19.587Z,1.50
2022-12-01T03:55:52.359Z,1.50
2022-12-01T03:58:26.003Z,1.50
2022-12-01T04:00:57.633Z,1.50
2022-12-01T04:03:25.751Z,1.50
2022-12-01T04:05:53.764Z,1.50
2022-12-01T04:08:21.563Z,1.50
2022-12-01T04:10:49.448Z,1.50
2022-12-01T04:13:23.049Z,1.50
2022-12-01T04:15:52.119Z,1.50
2022-12-01T04:18:20.055Z,1.50
2022-12-01T04:20:49.377Z,1.50
2022-12-01T04:23:36.001Z,1.50
2022-12-01T04:26:04.776Z,1.50
2022-12-01T04:28:32.907Z,1.50
2022-12-01T04:31:00.664Z,1.50
2022-12-01T04:33:29.604Z,1.50
2022-12-01T04:35:59.268Z,1.50
2022-12-01T04:38:30.530Z,1.50
2022-12-01T04:40:59.049Z,1.50
2022-12-01T04:43:26.774Z,1.50
2022-12-01T04:45:54.596Z,1.50
2022-12-01T04:48:22.351Z,1.50
2022-12-01T04:50:50.075Z,1.50
2022-12-01T04:53:17.756Z,1.50
2022-12-01T04:55:45.679Z,1.50
2022-12-01T04:58:13.431Z,1.50
2022-12-01T05:00:41.363Z,1.50
2022-12-01T05:03:14.688Z,1.50
2022-12-01T05:05:43.087Z,1.50
2022-12-01T05:08:11.054Z,1.50
2022-12-01T05:10:39.046Z,1.50
2022-12-01T05:13:06.930Z,1.50
2022-12-01T05:15:34.777Z,1.50
2022-12-01T05:18:02.479Z,1.50
2022-12-01T05:20:48.928Z,1.50
2022-12-01T05:23:17.286Z,1.50
2022-12-01T05:25:45.128Z,1.50
2022-12-01T05:28:13.017Z,1.50
2022-12-01T05:30:40.897Z,1.50
2022-12-01T05:33:08.708Z,1.50
2022-12-01T05:35:36.528Z,1.50
2022-12-01T05:38:07.788Z,1.56
2022-12-01T05:40:37.547Z,1.54
2022-12-01T05:43:05.653Z,1.58
2022-12-01T05:45:35.349Z,1.56
2022-12-01T05:48:03.250Z,1.52
2022-12-01T05:50:31.138Z,1.58
2022-12-01T05:52:59.009Z,1.58
2022-12-01T05:55:26.903Z,1.52
2022-12-01T05:57:54.667Z,1.50
2022-12-01T06:00:22.716Z,1.50
2022-12-01T06:02:50.485Z,1.50
2022-12-01T06:05:18.261Z,1.50
2022-12-01T06:07:46.122Z,1.50
2022-12-01T06:10:14.061Z,1.50
2022-12-01T06:12:41.875Z,1.50
2022-12-01T06:15:11.223Z,1.50
2022-12-01T06:17:40.587Z,1.48
2022-12-01T06:20:09.499Z,1.46
2022-12-01T06:22:37.447Z,1.50
2022-12-01T06:25:05.988Z,1.50
2022-12-01T06:27:33.781Z,1.50
2022-12-01T06:30:02.046Z,1.50
2022-12-01T06:32:29.886Z,1.50
2022-12-01T06:34:57.640Z,1.50
2022-12-01T06:37:27.545Z,1.50
2022-12-01T06:39:55.274Z,1.50
2022-12-01T06:42:23.098Z,1.50
2022-12-01T06:44:50.817Z,1.50
2022-12-01T06:47:18.660Z,1.50
2022-12-01T06:49:46.519Z,1.50
2022-12-01T06:52:14.374Z,1.50
2022-12-01T06:54:42.103Z,1.50
2022-12-01T06:57:10.191Z,1.50
2022-12-01T06:59:37.921Z,1.50
2022-12-01T07:02:05.948Z,1.50
2022-12-01T07:04:33.773Z,1.50
2022-12-01T07:07:01.486Z,1.50
2022-12-01T07:09:29.223Z,1.50
2022-12-01T07:11:57.082Z,1.50
2022-12-01T07:14:26.661Z,1.50
2022-12-01T07:16:54.672Z,1.52
2022-12-01T07:19:22.656Z,1.50
2022-12-01T07:21:50.508Z,1.52
2022-12-01T07:24:18.317Z,1.52
2022-12-01T07:26:46.446Z,1.50
2022-12-01T07:29:14.241Z,1.50
2022-12-01T07:31:42.017Z,1.52
2022-12-01T07:34:12.465Z,1.54
2022-12-01T07:36:40.247Z,1.54
2022-12-01T07:39:08.479Z,1.52
2022-12-01T07:41:36.326Z,1.58
2022-12-01T07:44:04.197Z,1.60
2022-12-01T07:46:32.060Z,1.60
2022-12-01T07:49:00.449Z,1.60
2022-12-01T07:51:28.322Z,1.60
2022-12-01T07:53:56.292Z,1.60
2022-12-01T07:56:24.229Z,1.60
2022-12-01T07:58:52.135Z,1.60
2022-12-01T08:01:22.517Z,1.66
2022-12-01T08:03:52.675Z,1.70
2022-12-01T08:06:20.675Z,1.68
2022-12-01T08:08:48.816Z,1.70
2022-12-01T08:11:29.457Z,1.68
2022-12-01T08:13:57.344Z,1.70
2022-12-01T08:16:25.455Z,1.70
2022-12-01T08:18:53.702Z,1.70
2022-12-01T08:21:23.031Z,1.80
2022-12-01T08:23:55.508Z,1.80
2022-12-01T08:26:24.914Z,1.84
2022-12-01T08:28:52.689Z,1.90
2022-12-01T08:31:23.862Z,2.00
2022-12-01T08:33:52.077Z,2.00
2022-12-01T08:36:20.613Z,2.10
2022-12-01T08:38:53.104Z,2.10
2022-12-01T08:41:21.148Z,2.10
2022-12-01T08:43:58.056Z,2.10
2022-12-01T08:46:34.336Z,2.10
2022-12-01T08:49:05.357Z,2.10
2022-12-01T08:51:33.156Z,2.10
2022-12-01T08:54:01.352Z,2.10
2022-12-01T08:56:34.743Z,2.10
2022-12-01T08:59:02.798Z,2.10
2022-12-01T09:01:30.829Z,2.10
2022-12-01T09:04:08.625Z,2.10
2022-12-01T09:06:42.560Z,2.10
2022-12-01T09:09:16.623Z,2.10
2022-12-01T09:11:45.242Z,2.10
2022-12-01T09:14:14.251Z,2.10
2022-12-01T09:16:43.537Z,2.10
2022-12-01T09:19:13.237Z,2.10
2022-12-01T09:21:43.439Z,2.10
2022-12-01T09:24:13.070Z,2.10
2022-12-01T09:26:41.437Z,2.10
2022-12-01T09:29:13.641Z,2.10
2022-12-01T09:31:41.879Z,2.10
2022-12-01T09:34:18.562Z,2.10
2022-12-01T09:36:47.306Z,2.10
2022-12-01T09:39:18.191Z,2.10
2022-12-01T09:42:12.960Z,2.10
2022-12-01T09:44:52.720Z,2.10
2022-12-01T09:47:34.377Z,2.10
2022-12-01T09:50:06.995Z,2.16
2022-12-01T09:52:41.248Z,2.20
2022-12-01T09:55:21.131Z,2.18
2022-12-01T09:57:54.623Z,2.20
2022-12-01T10:00:24.712Z,2.20
2022-12-01T10:02:59.022Z,2.20
2022-12-01T10:05:31.557Z,2.26
2022-12-01T10:08:02.469Z,2.30
2022-12-01T10:14:08.776Z,2.40
2022-12-01T10:16:49.389Z,2.40
2022-12-01T10:20:13.326Z,2.40
2022-12-01T10:23:10.536Z,2.40
2022-12-01T10:26:02.478Z,2.40
2022-12-01T10:29:01.412Z,2.40
2022-12-01T10:31:55.333Z,2.40
2022-12-01T10:34:34.805Z,2.40
2022-12-01T10:37:02.602Z,2.40
2022-12-01T10:39:35.020Z,2.30
2022-12-01T10:42:39.579Z,2.30
2022-12-01T10:45:31.991Z,2.30
2022-12-01T10:48:17.164Z,2.30
2022-12-01T10:50:55.344Z,2.30
2022-12-01T10:53:23.137Z,2.30
2022-12-01T10:56:18.312Z,2.30
2022-12-01T10:58:51.883Z,2.30
2022-12-01T11:01:25.462Z,2.30
2022-12-01T11:04:32.491Z,2.30
2022-12-01T11:07:01.341Z,2.30
2022-12-01T11:09:30.272Z,2.30
2022-12-01T11:12:03.415Z,2.30
2022-12-01T11:14:43.307Z,2.30
2022-12-01T11:17:23.448Z,2.30
2022-12-01T11:19:51.471Z,2.30
2022-12-01T11:22:27.796Z,2.30
2022-12-01T11:24:56.389Z,2.30
2022-12-01T11:27:26.945Z,2.30
2022-12-01T11:29:57.338Z,2.28
2022-12-01T11:32:30.985Z,2.30
2022-12-01T11:35:03.377Z,2.28
2022-12-01T11:37:38.612Z,2.24
2022-12-01T11:40:32.065Z,2.24
2022-12-01T11:43:05.147Z,2.20
2022-12-01T11:45:40.245Z,2.20
2022-12-01T11:48:17.071Z,2.20
2022-12-01T11:50:45.991Z,2.14
2022-12-01T11:53:32.323Z,2.12
2022-12-01T11:56:23.829Z,2.10
2022-12-01T11:59:03.537Z,2.12
2022-12-01T12:02:06.229Z,2.10
2022-12-01T12:05:20.105Z,2.10
2022-12-01T12:08:07.697Z,2.10
2022-12-01T12:11:01.705Z,2.10
2022-12-01T12:13:57.022Z,2.10
2022-12-01T12:16:52.751Z,2.10
2022-12-01T12:20:07.553Z,2.10
2022-12-01T12:23:06.517Z,2.10
2022-12-01T12:25:59.055Z,2.10
2022-12-01T12:28:45.637Z,2.10
2022-12-01T12:31:47.546Z,2.10
2022-12-01T12:34:56.597Z,2.10
2022-12-01T12:37:57.112Z,2.10
2022-12-01T12:41:00.986Z,2.10
2022-12-01T12:43:41.546Z,2.10
2022-12-01T12:46:41.467Z,2.10
2022-12-01T12:49:58.557Z,2.10
2022-12-01T12:52:37.426Z,2.10
2022-12-01T12:55:21.575Z,2.10
2022-12-01T12:57:53.094Z,2.10
2022-12-01T13:00:27.015Z,2.10
2022-12-01T13:03:09.739Z,2.10
2022-12-01T13:05:49.444Z,2.10
2022-12-01T13:08:25.577Z,2.10
2022-12-01T13:11:20.178Z,2.10
2022-12-01T13:13:48.443Z,2.04
2022-12-01T13:16:28.372Z,2.00
2022-12-01T13:19:05.030Z,2.00
2022-12-01T13:21:44.832Z,2.00
2022-12-01T13:24:19.849Z,2.00
2022-12-01T13:27:11.224Z,2.00
2022-12-01T13:29:44.356Z,1.94
2022-12-01T13:32:34.640Z,1.90
2022-12-01T13:35:29.751Z,1.90
2022-12-01T13:38:33.778Z,1.90
2022-12-01T13:41:33.427Z,1.90
2022-12-01T13:44:08.440Z,1.90
2022-12-01T13:46:42.307Z,1.86
2022-12-01T13:49:40.592Z,1.82
2022-12-01T13:52:28.131Z,1.80
2022-12-01T13:55:09.610Z,1.80
2022-12-01T13:58:21.205Z,1.80
2022-12-01T14:00:51.007Z,1.80
2022-12-01T14:03:22.013Z,1.80
2022-12-01T14:06:08.439Z,1.80
2022-12-01T14:08:44.626Z,1.80
2022-12-01T14:11:26.907Z,1.80
2022-12-01T14:14:10.550Z,1.80
2022-12-01T14:16:58.661Z,1.80
2022-12-01T14:19:41.078Z,1.80
2022-12-01T14:22:34.221Z,1.80
2022-12-01T14:25:03.140Z,1.76
2022-12-01T14:27:43.000Z,1.70
2022-12-01T14:30:39.453Z,1.70
2022-12-01T14:33:58.017Z,1.70
2022-12-01T14:36:49.882Z,1.70
2022-12-01T14:39:31.489Z,1.70
2022-12-01T14:42:11.570Z,1.70
2022-12-01T14:44:48.500Z,1.70
2022-12-01T14:47:23.205Z,1.70
2022-12-01T14:49:59.284Z,1.70
2022-12-01T14:52:36.821Z,1.66
2022-12-01T14:55:16.052Z,1.66
2022-12-01T14:57:50.560Z,1.68
2022-12-01T15:00:24.018Z,1.70
2022-12-01T15:02:58.515Z,1.64
2022-12-01T15:05:28.605Z,1.60
2022-12-01T15:08:33.289Z,1.60
2022-12-01T15:10:53.128Z,1.60
2022-12-01T15:13:30.795Z,1.60
2022-12-01T15:16:04.201Z,1.60
2022-12-01T15:18:34.832Z,1.60
2022-12-01T15:21:25.841Z,1.60
2022-12-01T15:24:04.707Z,1.60
2022-12-01T15:26:35.880Z,1.60
2022-12-01T15:29:15.613Z,1.60
2022-12-01T15:31:46.719Z,1.60
2022-12-01T15:34:24.846Z,1.52
2022-12-01T15:36:53.078Z,1.52
2022-12-01T15:39:37.227Z,1.50
2022-12-01T15:42:05.397Z,1.50
2022-12-01T15:44:35.783Z,1.50
2022-12-01T15:47:46.654Z,1.52
2022-12-01T15:50:26.293Z,1.50
2022-12-01T15:52:54.435Z,1.50
2022-12-01T15:55:31.936Z,1.50
2022-12-01T15:57:59.822Z,1.50
2022-12-01T16:00:27.632Z,1.50
2022-12-01T16:02:57.392Z,1.50
2022-12-01T16:05:31.547Z,1.42
2022-12-01T16:08:34.565Z,1.40
2022-12-01T16:11:17.167Z,1.40
2022-12-01T16:13:47.265Z,1.40
2022-12-01T16:16:37.990Z,1.40
2022-12-01T16:19:08.740Z,1.40
2022-12-01T16:21:48.940Z,1.40
2022-12-01T16:24:23.560Z,1.40
2022-12-01T16:27:05.395Z,1.34
2022-12-01T16:29:52.354Z,1.32
2022-12-01T16:32:49.373Z,1.30
2022-12-01T16:35:25.388Z,1.30
2022-12-01T16:37:57.355Z,1.30
2022-12-01T16:40:25.421Z,1.30
2022-12-01T16:42:53.219Z,1.30
2022-12-01T16:45:21.103Z,1.24
2022-12-01T16:47:49.337Z,1.20
2022-12-01T16:50:20.108Z,1.20
2022-12-01T16:52:48.349Z,1.20
2022-12-01T16:55:38.632Z,1.20
2022-12-01T16:58:06.694Z,1.20
2022-12-01T17:00:34.994Z,1.20
2022-12-01T17:03:02.825Z,1.20
2022-12-01T17:05:30.596Z,1.20
2022-12-01T17:07:58.573Z,1.20
2022-12-01T17:10:26.717Z,1.20
2022-12-01T17:12:54.546Z,1.20
2022-12-01T17:15:22.292Z,1.20
2022-12-01T17:17:50.035Z,1.20
2022-12-01T17:20:18.653Z,1.20
2022-12-01T17:22:46.460Z,1.20
2022-12-01T17:25:14.218Z,1.20
2022-12-01T17:27:43.858Z,1.20
2022-12-01T17:30:12.713Z,1.20
2022-12-01T17:32:40.451Z,1.18
2022-12-01T17:35:09.071Z,1.10
2022-12-01T17:37:39.700Z,1.10
2022-12-01T17:40:08.894Z,1.10
2022-12-01T17:42:37.177Z,1.10
2022-12-01T17:45:05.862Z,1.10
2022-12-01T17:47:33.676Z,1.10
2022-12-01T17:50:01.585Z,1.10
2022-12-01T17:52:30.010Z,1.10
2022-12-01T17:54:58.168Z,1.10
2022-12-01T17:57:26.081Z,1.10
2022-12-01T17:59:53.840Z,1.10
2022-12-01T18:02:21.650Z,1.08
2022-12-01T18:04:50.053Z,1.06
2022-12-01T18:07:18.108Z,1.08
2022-12-01T18:09:45.996Z,1.06
2022-12-01T18:12:13.745Z,1.02
2022-12-01T18:14:41.638Z,1.00
2022-12-01T18:17:09.493Z,1.00
2022-12-01T18:19:37.779Z,1.00
2022-12-01T18:22:05.690Z,1.00
2022-12-01T18:24:33.697Z,1.00
2022-12-01T18:27:01.475Z,1.00
2022-12-01T18:29:30.449Z,0.90
2022-12-01T18:32:00.117Z,0.90
2022-12-01T18:34:29.651Z,0.90
2022-12-01T18:36:57.709Z,0.90
2022-12-01T18:39:28.132Z,0.90
2022-12-01T18:41:56.387Z,0.90
2022-12-01T18:44:24.337Z,0.88
2022-12-01T18:46:52.270Z,0.84
2022-12-01T18:49:20.239Z,0.80
2022-12-01T18:51:48.116Z,0.88
2022-12-01T18:54:16.059Z,0.88
2022-12-01T18:56:43.993Z,0.88
2022-12-01T18:59:12.805Z,0.90
2022-12-01T19:01:43.931Z,0.90
2022-12-01T19:04:12.436Z,0.90
2022-12-01T19:06:41.824Z,0.80
2022-12-01T19:09:11.613Z,0.80
2022-12-01T19:11:40.777Z,0.80
2022-12-01T19:14:15.804Z,0.80
2022-12-01T19:16:44.720Z,0.80
2022-12-01T19:19:12.702Z,0.80
2022-12-01T19:21:40.763Z,0.80
2022-12-01T19:24:09.595Z,0.80
2022-12-01T19:26:37.729Z,0.80
2022-12-01T19:29:06.134Z,0.80
2022-12-01T19:31:34.018Z,0.80
2022-12-01T19:34:04.470Z,0.80
2022-12-01T19:36:32.408Z,0.80
2022-12-01T19:39:04.005Z,0.80
2022-12-01T19:41:35.340Z,0.76
2022-12-01T19:44:03.283Z,0.74
2022-12-01T19:46:32.934Z,0.72
2022-12-01T19:49:01.680Z,0.70
2022-12-01T19:51:35.534Z,0.72
2022-12-01T19:54:05.158Z,0.76
2022-12-01T19:56:33.218Z,0.70
2022-12-01T19:59:00.962Z,0.70
2022-12-01T20:01:29.029Z,0.72
2022-12-01T20:03:57.023Z,0.70
2022-12-01T20:06:27.846Z,0.70
2022-12-01T20:09:02.108Z,0.70
2022-12-01T20:11:31.608Z,0.70
2022-12-01T20:13:59.686Z,0.70
2022-12-01T20:16:27.973Z,0.70
2022-12-01T20:18:56.088Z,0.68
2022-12-01T20:21:26.984Z,0.62
2022-12-01T20:23:58.251Z,0.60
2022-12-01T20:26:30.779Z,0.60
2022-12-01T20:29:05.677Z,0.60
2022-12-01T20:31:33.838Z,0.60
2022-12-01T20:34:19.224Z,0.60
2022-12-01T20:36:47.739Z,0.60
2022-12-01T20:39:16.015Z,0.60
2022-12-01T20:41:44.068Z,0.60
2022-12-01T20:44:12.480Z,0.60
2022-12-01T20:46:45.253Z,0.60
2022-12-01T20:49:13.576Z,0.56
2022-12-01T20:51:41.370Z,0.60
2022-12-01T20:54:28.341Z,0.58
2022-12-01T20:56:58.049Z,0.50
2022-12-01T20:59:26.012Z,0.50
2022-12-01T21:01:54.068Z,0.50
2022-12-01T21:04:22.061Z,0.50
2022-12-01T21:06:50.234Z,0.50
2022-12-01T21:09:18.222Z,0.48
2022-12-01T21:12:07.768Z,0.48
2022-12-01T21:14:43.179Z,0.50
2022-12-01T21:17:44.331Z,0.50
2022-12-01T21:20:36.106Z,0.50
2022-12-01T21:23:13.542Z,0.50
2022-12-01T21:25:42.281Z,0.50
2022-12-01T21:28:24.313Z,0.44
2022-12-01T21:31:14.120Z,0.46
2022-12-01T21:33:42.565Z,0.40
2022-12-01T21:36:22.576Z,0.40
2022-12-01T21:38:53.750Z,0.40
2022-12-01T21:41:30.129Z,0.40
2022-12-01T21:44:10.894Z,0.40
2022-12-01T21:46:42.510Z,0.40
2022-12-01T21:49:21.099Z,0.40
2022-12-01T21:51:50.791Z,0.40
2022-12-01T21:54:22.435Z,0.40
2022-12-01T21:56:50.145Z,0.40
2022-12-01T21:59:24.691Z,0.40
2022-12-01T22:01:54.995Z,0.40
2022-12-01T22:04:30.170Z,0.42
2022-12-01T22:06:58.287Z,0.40
2022-12-01T22:09:36.496Z,0.40
2022-12-01T22:12:10.314Z,0.40
2022-12-01T22:14:38.118Z,0.40
2022-12-01T22:17:05.899Z,0.40
2022-12-01T22:19:44.519Z,0.40
2022-12-01T22:22:12.250Z,0.40
2022-12-01T22:24:51.827Z,0.40
2022-12-01T22:27:40.124Z,0.40
2022-12-01T22:30:07.994Z,0.40
2022-12-01T22:32:55.711Z,0.40
2022-12-01T22:35:27.197Z,0.40
2022-12-01T22:38:26.306Z,0.40
2022-12-01T22:40:58.111Z,0.40
2022-12-01T22:43:50.785Z,0.40
2022-12-01T22:46:36.441Z,0.40
2022-12-01T22:49:22.317Z,0.40
2022-12-01T22:52:00.533Z,0.40
2022-12-01T22:54:39.600Z,0.40
2022-12-01T22:57:26.049Z,0.40
2022-12-01T22:59:54.002Z,0.40
2022-12-01T23:02:48.737Z,0.40
2022-12-01T23:05:29.615Z,0.40
2022-12-01T23:07:57.729Z,0.32
2022-12-01T23:10:30.925Z,0.36
2022-12-01T23:13:00.972Z,0.34
2022-12-01T23:15:39.524Z,0.34
2022-12-01T23:18:24.275Z,0.30
2022-12-01T23:21:00.158Z,0.30
2022-12-01T23:23:30.404Z,0.30
2022-12-01T23:25:58.199Z,0.30
2022-12-01T23:28:26.036Z,0.30
2022-12-01T23:30:56.735Z,0.30
2022-12-01T23:33:27.640Z,0.30
2022-12-01T23:36:12.706Z,0.30
2022-12-01T23:38:47.622Z,0.30
2022-12-01T23:41:50.265Z,0.30
2022-12-01T23:44:35.681Z,0.30
2022-12-01T23:47:03.602Z,0.30
2022-12-01T23:49:33.555Z,0.24
2022-12-01T23:52:03.133Z,0.20
2022-12-01T23:54:34.785Z,0.20
2022-12-01T23:57:19.874Z,0.20
2022-12-01T23:59:49.589Z,0.20
